sensor_id;sensor_type;location;lat;lon;timestamp;pressure;altitude;pressure_sealevel;temperature;humidity
10706;BME280;5404;42.656;23.336;2023-11-22T00:01:59;94092.66;;;5.71;76.69
10706;BME280;5404;42.656;23.336;2023-11-22T00:04:25;94087.59;;;5.77;77.14
10706;BME280;5404;42.656;23.336;2023-11-22T00:06:50;94109.22;;;5.80;76.31
10706;BME280;5404;42.656;23.336;2023-11-22T00:09:16;94089.53;;;5.76;76.81
10706;BME280;5404;42.656;23.336;2023-11-22T00:11:41;94067.91;;;5.76;76.92
10706;BME280;5404;42.656;23.336;2023-11-22T00:14:07;94081.41;;;5.76;76.94
10706;BME280;5404;42.656;23.336;2023-11-22T00:16:32;94073.28;;;5.80;76.51
10706;BME280;5404;42.656;23.336;2023-11-22T00:18:57;94074.44;;;5.89;76.60
10706;BME280;5404;42.656;23.336;2023-11-22T00:21:23;94072.06;;;5.92;76.27
10706;BME280;5404;42.656;23.336;2023-11-22T00:23:50;94083.69;;;5.88;76.65
10706;BME280;5404;42.656;23.336;2023-11-22T00:26:15;94072.06;;;5.92;76.26
10706;BME280;5404;42.656;23.336;2023-11-22T00:28:40;94071.31;;;5.91;76.10
10706;BME280;5404;42.656;23.336;2023-11-22T00:31:06;94076.34;;;5.89;75.71
10706;BME280;5404;42.656;23.336;2023-11-22T00:33:31;94064.41;;;5.79;76.37
10706;BME280;5404;42.656;23.336;2023-11-22T00:35:57;94084.53;;;5.71;76.81
10706;BME280;5404;42.656;23.336;2023-11-22T00:38:24;94073.03;;;5.60;77.45
10706;BME280;5404;42.656;23.336;2023-11-22T00:40:49;94073.09;;;5.53;77.22
10706;BME280;5404;42.656;23.336;2023-11-22T00:43:18;94090.84;;;5.54;76.62
10706;BME280;5404;42.656;23.336;2023-11-22T00:45:44;94066.06;;;5.63;76.44
10706;BME280;5404;42.656;23.336;2023-11-22T00:48:11;94093.47;;;5.68;76.27
10706;BME280;5404;42.656;23.336;2023-11-22T00:50:37;94071.38;;;5.77;76.92
10706;BME280;5404;42.656;23.336;2023-11-22T00:53:03;94095.31;;;5.82;75.79
10706;BME280;5404;42.656;23.336;2023-11-22T00:55:28;94066.34;;;5.79;76.29
10706;BME280;5404;42.656;23.336;2023-11-22T00:57:54;94069.44;;;5.77;76.51
10706;BME280;5404;42.656;23.336;2023-11-22T01:00:21;94068.31;;;5.75;76.78
10706;BME280;5404;42.656;23.336;2023-11-22T01:02:47;94074.78;;;5.92;76.01
10706;BME280;5404;42.656;23.336;2023-11-22T01:05:12;94075.09;;;6.01;76.41
10706;BME280;5404;42.656;23.336;2023-11-22T01:07:38;94075.53;;;5.96;76.12
10706;BME280;5404;42.656;23.336;2023-11-22T01:10:04;94061.19;;;5.99;75.81
10706;BME280;5404;42.656;23.336;2023-11-22T01:12:30;94070.13;;;5.96;75.50
10706;BME280;5404;42.656;23.336;2023-11-22T01:14:56;94069.25;;;6.06;75.78
10706;BME280;5404;42.656;23.336;2023-11-22T01:17:21;94049.22;;;6.00;76.10
10706;BME280;5404;42.656;23.336;2023-11-22T01:19:47;94046.44;;;6.10;75.72
10706;BME280;5404;42.656;23.336;2023-11-22T01:22:12;94038.78;;;6.02;75.82
10706;BME280;5404;42.656;23.336;2023-11-22T01:24:39;94051.56;;;5.98;75.89
10706;BME280;5404;42.656;23.336;2023-11-22T01:27:04;94044.59;;;6.00;75.78
10706;BME280;5404;42.656;23.336;2023-11-22T01:29:30;94050.31;;;6.09;75.76
10706;BME280;5404;42.656;23.336;2023-11-22T01:31:56;94046.78;;;6.12;75.83
10706;BME280;5404;42.656;23.336;2023-11-22T01:34:21;94046.38;;;6.17;75.54
10706;BME280;5404;42.656;23.336;2023-11-22T01:36:49;94052.59;;;6.14;75.87
10706;BME280;5404;42.656;23.336;2023-11-22T01:39:16;94039.44;;;6.13;75.79
10706;BME280;5404;42.656;23.336;2023-11-22T01:41:44;94013.28;;;6.03;76.03
10706;BME280;5404;42.656;23.336;2023-11-22T01:44:10;94018.97;;;6.15;76.12
10706;BME280;5404;42.656;23.336;2023-11-22T01:46:37;94013.88;;;6.24;75.47
10706;BME280;5404;42.656;23.336;2023-11-22T01:49:03;94008.41;;;6.28;75.92
10706;BME280;5404;42.656;23.336;2023-11-22T01:51:28;93979.31;;;5.98;75.93
10706;BME280;5404;42.656;23.336;2023-11-22T01:53:55;94024.63;;;6.28;75.86
10706;BME280;5404;42.656;23.336;2023-11-22T01:56:23;94023.84;;;6.31;75.73
10706;BME280;5404;42.656;23.336;2023-11-22T01:58:49;94028.88;;;6.29;75.77
10706;BME280;5404;42.656;23.336;2023-11-22T02:01:15;94025.81;;;6.27;75.75
10706;BME280;5404;42.656;23.336;2023-11-22T02:03:41;94021.59;;;6.22;75.96
10706;BME280;5404;42.656;23.336;2023-11-22T02:06:08;94021.69;;;6.12;75.92
10706;BME280;5404;42.656;23.336;2023-11-22T02:08:36;94021.34;;;6.10;75.68
10706;BME280;5404;42.656;23.336;2023-11-22T02:11:02;94011.63;;;6.16;76.04
10706;BME280;5404;42.656;23.336;2023-11-22T02:13:29;94019.28;;;6.21;75.91
10706;BME280;5404;42.656;23.336;2023-11-22T02:15:55;94020.28;;;5.97;76.54
10706;BME280;5404;42.656;23.336;2023-11-22T02:18:25;94017.16;;;6.02;76.79
10706;BME280;5404;42.656;23.336;2023-11-22T02:20:51;94002.53;;;5.96;76.37
10706;BME280;5404;42.656;23.336;2023-11-22T02:23:17;94019.47;;;6.00;76.97
10706;BME280;5404;42.656;23.336;2023-11-22T02:25:42;94008.66;;;6.03;76.24
10706;BME280;5404;42.656;23.336;2023-11-22T02:28:08;94022.63;;;5.91;76.60
10706;BME280;5404;42.656;23.336;2023-11-22T02:30:34;94018.75;;;5.96;76.70
10706;BME280;5404;42.656;23.336;2023-11-22T02:32:59;94022.56;;;6.02;76.57
10706;BME280;5404;42.656;23.336;2023-11-22T02:35:25;94029.50;;;6.03;75.96
10706;BME280;5404;42.656;23.336;2023-11-22T02:37:52;94018.81;;;5.88;76.11
10706;BME280;5404;42.656;23.336;2023-11-22T02:40:19;94014.06;;;6.03;76.05
10706;BME280;5404;42.656;23.336;2023-11-22T02:42:54;94021.03;;;6.01;76.41
10706;BME280;5404;42.656;23.336;2023-11-22T02:45:26;94022.28;;;5.85;77.39
10706;BME280;5404;42.656;23.336;2023-11-22T02:47:51;94010.28;;;5.90;77.14
10706;BME280;5404;42.656;23.336;2023-11-22T02:50:17;93994.88;;;5.83;76.88
10706;BME280;5404;42.656;23.336;2023-11-22T02:52:43;94018.81;;;5.88;77.32
10706;BME280;5404;42.656;23.336;2023-11-22T02:55:09;94014.56;;;5.87;77.10
10706;BME280;5404;42.656;23.336;2023-11-22T02:57:35;94011.88;;;5.87;77.17
10706;BME280;5404;42.656;23.336;2023-11-22T03:00:02;94018.78;;;5.92;77.19
10706;BME280;5404;42.656;23.336;2023-11-22T03:02:30;94006.34;;;5.98;77.21
10706;BME280;5404;42.656;23.336;2023-11-22T03:04:57;94024.09;;;6.03;76.24
10706;BME280;5404;42.656;23.336;2023-11-22T03:07:23;94027.97;;;6.02;77.04
10706;BME280;5404;42.656;23.336;2023-11-22T03:09:49;94019.41;;;6.10;76.87
10706;BME280;5404;42.656;23.336;2023-11-22T03:12:15;94024.38;;;6.15;76.54
10706;BME280;5404;42.656;23.336;2023-11-22T03:14:41;94028.97;;;6.18;76.31
10706;BME280;5404;42.656;23.336;2023-11-22T03:17:06;94026.31;;;6.15;76.18
10706;BME280;5404;42.656;23.336;2023-11-22T03:19:33;94029.06;;;6.08;76.71
10706;BME280;5404;42.656;23.336;2023-11-22T03:22:00;94032.09;;;6.17;76.26
10706;BME280;5404;42.656;23.336;2023-11-22T03:24:25;94038.72;;;6.09;76.34
10706;BME280;5404;42.656;23.336;2023-11-22T03:26:51;94034.09;;;6.09;75.82
10706;BME280;5404;42.656;23.336;2023-11-22T03:29:18;94037.19;;;6.08;76.08
10706;BME280;5404;42.656;23.336;2023-11-22T03:31:44;94034.41;;;6.15;76.27
10706;BME280;5404;42.656;23.336;2023-11-22T03:34:13;94029.72;;;6.22;75.83
10706;BME280;5404;42.656;23.336;2023-11-22T03:36:40;94028.63;;;6.16;75.75
10706;BME280;5404;42.656;23.336;2023-11-22T03:39:05;94020.78;;;6.25;75.74
10706;BME280;5404;42.656;23.336;2023-11-22T03:41:31;94022.38;;;6.23;76.31
10706;BME280;5404;42.656;23.336;2023-11-22T03:43:57;94022.31;;;6.30;76.20
10706;BME280;5404;42.656;23.336;2023-11-22T03:46:23;94020.72;;;6.33;76.04
10706;BME280;5404;42.656;23.336;2023-11-22T03:48:49;94016.06;;;6.33;75.88
10706;BME280;5404;42.656;23.336;2023-11-22T03:51:14;94012.06;;;6.11;76.26
10706;BME280;5404;42.656;23.336;2023-11-22T03:53:41;94016.59;;;6.21;76.86
10706;BME280;5404;42.656;23.336;2023-11-22T03:56:07;94008.41;;;6.28;76.48
10706;BME280;5404;42.656;23.336;2023-11-22T03:58:33;94016.63;;;6.17;76.50
10706;BME280;5404;42.656;23.336;2023-11-22T04:00:59;94020.91;;;6.11;76.55
10706;BME280;5404;42.656;23.336;2023-11-22T04:03:27;94017.75;;;6.20;77.10
10706;BME280;5404;42.656;23.336;2023-11-22T04:05:53;94022.44;;;6.16;76.66
10706;BME280;5404;42.656;23.336;2023-11-22T04:08:19;94018.97;;;6.12;76.36
10706;BME280;5404;42.656;23.336;2023-11-22T04:10:45;94042.72;;;5.94;76.82
10706;BME280;5404;42.656;23.336;2023-11-22T04:13:11;94018.72;;;5.99;76.84
10706;BME280;5404;42.656;23.336;2023-11-22T04:15:36;94039.63;;;5.92;77.48
10706;BME280;5404;42.656;23.336;2023-11-22T04:18:01;94046.13;;;6.01;77.11
10706;BME280;5404;42.656;23.336;2023-11-22T04:20:27;94047.28;;;6.04;76.35
10706;BME280;5404;42.656;23.336;2023-11-22T04:22:52;94051.84;;;6.10;76.92
10706;BME280;5404;42.656;23.336;2023-11-22T04:25:18;94060.38;;;6.09;76.28
10706;BME280;5404;42.656;23.336;2023-11-22T04:27:43;94071.19;;;6.09;76.13
10706;BME280;5404;42.656;23.336;2023-11-22T04:30:09;94052.69;;;6.04;76.68
10706;BME280;5404;42.656;23.336;2023-11-22T04:32:42;94072.84;;;5.96;77.26
10706;BME280;5404;42.656;23.336;2023-11-22T04:35:17;94069.63;;;6.08;76.89
10706;BME280;5404;42.656;23.336;2023-11-22T04:37:42;94074.25;;;6.11;76.63
10706;BME280;5404;42.656;23.336;2023-11-22T04:40:09;94079.31;;;6.05;76.98
10706;BME280;5404;42.656;23.336;2023-11-22T04:42:36;94073.13;;;6.05;76.62
10706;BME280;5404;42.656;23.336;2023-11-22T04:45:03;94068.09;;;6.10;76.46
10706;BME280;5404;42.656;23.336;2023-11-22T04:47:28;94071.19;;;6.09;76.35
10706;BME280;5404;42.656;23.336;2023-11-22T04:49:54;94092.06;;;6.05;77.33
10706;BME280;5404;42.656;23.336;2023-11-22T04:52:20;94084.00;;;5.98;77.87
10706;BME280;5404;42.656;23.336;2023-11-22T04:54:45;94089.00;;;6.03;78.15
10706;BME280;5404;42.656;23.336;2023-11-22T04:57:11;94092.81;;;6.05;78.03
10706;BME280;5404;42.656;23.336;2023-11-22T04:59:36;94109.94;;;5.84;78.80
10706;BME280;5404;42.656;23.336;2023-11-22T05:02:03;94119.16;;;5.98;78.03
10706;BME280;5404;42.656;23.336;2023-11-22T05:04:29;94119.56;;;5.93;78.42
10706;BME280;5404;42.656;23.336;2023-11-22T05:06:54;94132.38;;;5.88;78.76
10706;BME280;5404;42.656;23.336;2023-11-22T05:09:19;94135.41;;;5.90;79.44
10706;BME280;5404;42.656;23.336;2023-11-22T05:11:45;94129.25;;;5.90;78.84
10706;BME280;5404;42.656;23.336;2023-11-22T05:14:11;94137.78;;;5.88;79.15
10706;BME280;5404;42.656;23.336;2023-11-22T05:16:36;94120.44;;;5.75;78.94
10706;BME280;5404;42.656;23.336;2023-11-22T05:19:02;94141.66;;;5.80;79.21
10706;BME280;5404;42.656;23.336;2023-11-22T05:21:27;94132.38;;;5.78;80.06
10706;BME280;5404;42.656;23.336;2023-11-22T05:23:53;94143.19;;;5.78;80.26
10706;BME280;5404;42.656;23.336;2023-11-22T05:26:20;94136.69;;;5.68;80.27
10706;BME280;5404;42.656;23.336;2023-11-22T05:28:46;94154.84;;;5.68;81.18
10706;BME280;5404;42.656;23.336;2023-11-22T05:31:12;94152.91;;;5.65;81.07
10706;BME280;5404;42.656;23.336;2023-11-22T05:33:38;94151.72;;;5.73;80.75
10706;BME280;5404;42.656;23.336;2023-11-22T05:36:05;94156.38;;;5.69;80.85
10706;BME280;5404;42.656;23.336;2023-11-22T05:38:31;94167.56;;;5.74;81.22
10706;BME280;5404;42.656;23.336;2023-11-22T05:40:58;94178.38;;;5.74;82.09
10706;BME280;5404;42.656;23.336;2023-11-22T05:43:24;94168.69;;;5.77;81.77
10706;BME280;5404;42.656;23.336;2023-11-22T05:45:53;94171.00;;;5.78;81.99
10706;BME280;5404;42.656;23.336;2023-11-22T05:48:19;94174.84;;;5.77;82.31
10706;BME280;5404;42.656;23.336;2023-11-22T05:50:45;94165.97;;;5.80;82.31
10706;BME280;5404;42.656;23.336;2023-11-22T05:53:11;94180.22;;;5.92;81.80
10706;BME280;5404;42.656;23.336;2023-11-22T05:55:37;94182.59;;;5.82;81.66
10706;BME280;5404;42.656;23.336;2023-11-22T05:58:06;94188.38;;;5.81;81.37
10706;BME280;5404;42.656;23.336;2023-11-22T06:00:31;94200.69;;;5.93;81.51
10706;BME280;5404;42.656;23.336;2023-11-22T06:02:56;94192.53;;;6.00;81.61
10706;BME280;5404;42.656;23.336;2023-11-22T06:05:22;94196.75;;;6.04;81.02
10706;BME280;5404;42.656;23.336;2023-11-22T06:07:47;94202.53;;;6.06;81.97
10706;BME280;5404;42.656;23.336;2023-11-22T06:10:13;94201.38;;;6.11;81.24
10706;BME280;5404;42.656;23.336;2023-11-22T06:12:41;94216.44;;;6.08;81.51
10706;BME280;5404;42.656;23.336;2023-11-22T06:15:07;94211.78;;;6.16;81.49
10706;BME280;5404;42.656;23.336;2023-11-22T06:17:32;94195.56;;;6.12;80.95
10706;BME280;5404;42.656;23.336;2023-11-22T06:19:58;94222.94;;;6.21;81.34
10706;BME280;5404;42.656;23.336;2023-11-22T06:22:23;94240.38;;;6.13;81.69
10706;BME280;5404;42.656;23.336;2023-11-22T06:24:49;94239.25;;;6.11;81.12
10706;BME280;5404;42.656;23.336;2023-11-22T06:27:14;94237.66;;;6.17;81.49
10706;BME280;5404;42.656;23.336;2023-11-22T06:29:43;94241.09;;;6.21;81.27
10706;BME280;5404;42.656;23.336;2023-11-22T06:32:12;94220.31;;;6.11;81.37
10706;BME280;5404;42.656;23.336;2023-11-22T06:34:37;94230.28;;;6.21;81.40
10706;BME280;5404;42.656;23.336;2023-11-22T06:37:03;94217.13;;;6.23;81.37
10706;BME280;5404;42.656;23.336;2023-11-22T06:39:29;94222.88;;;6.32;81.19
10706;BME280;5404;42.656;23.336;2023-11-22T06:41:54;94226.28;;;6.40;81.13
10706;BME280;5404;42.656;23.336;2023-11-22T06:44:21;94240.19;;;6.45;81.30
10706;BME280;5404;42.656;23.336;2023-11-22T06:46:47;94250.19;;;6.52;81.65
10706;BME280;5404;42.656;23.336;2023-11-22T06:49:13;94256.69;;;6.61;81.24
10706;BME280;5404;42.656;23.336;2023-11-22T06:51:39;94262.47;;;6.63;80.81
10706;BME280;5404;42.656;23.336;2023-11-22T06:54:05;94254.69;;;6.69;81.01
10706;BME280;5404;42.656;23.336;2023-11-22T06:56:32;94259.00;;;6.66;81.21
10706;BME280;5404;42.656;23.336;2023-11-22T06:58:58;94262.81;;;6.73;81.05
10706;BME280;5404;42.656;23.336;2023-11-22T07:01:24;94260.09;;;6.73;80.81
10706;BME280;5404;42.656;23.336;2023-11-22T07:03:52;94263.19;;;6.75;80.80
10706;BME280;5404;42.656;23.336;2023-11-22T07:06:18;94260.81;;;6.80;80.39
10706;BME280;5404;42.656;23.336;2023-11-22T07:08:46;94259.28;;;6.76;80.07
10706;BME280;5404;42.656;23.336;2023-11-22T07:11:12;94257.72;;;6.78;80.38
10706;BME280;5404;42.656;23.336;2023-11-22T07:13:39;94269.69;;;6.84;79.99
10706;BME280;5404;42.656;23.336;2023-11-22T07:16:05;94269.66;;;6.88;79.94
10706;BME280;5404;42.656;23.336;2023-11-22T07:18:32;94268.03;;;6.97;79.70
10706;BME280;5404;42.656;23.336;2023-11-22T07:21:00;94270.66;;;7.04;79.74
10706;BME280;5404;42.656;23.336;2023-11-22T07:23:25;94276.50;;;7.03;79.26
10706;BME280;5404;42.656;23.336;2023-11-22T07:25:54;94283.03;;;7.09;79.02
10706;BME280;5404;42.656;23.336;2023-11-22T07:28:20;94275.69;;;7.10;80.02
10706;BME280;5404;42.656;23.336;2023-11-22T07:30:46;94274.47;;;7.14;79.41
10706;BME280;5404;42.656;23.336;2023-11-22T07:33:14;94280.56;;;7.25;79.78
10706;BME280;5404;42.656;23.336;2023-11-22T07:35:40;94279.00;;;7.28;79.68
10706;BME280;5404;42.656;23.336;2023-11-22T07:38:06;94288.28;;;7.27;78.44
10706;BME280;5404;42.656;23.336;2023-11-22T07:40:34;94276.66;;;7.30;78.83
10706;BME280;5404;42.656;23.336;2023-11-22T07:42:59;94289.00;;;7.34;78.62
10706;BME280;5404;42.656;23.336;2023-11-22T07:45:25;94285.13;;;7.35;78.80
10706;BME280;5404;42.656;23.336;2023-11-22T07:47:50;94292.53;;;7.31;78.92
10706;BME280;5404;42.656;23.336;2023-11-22T07:50:18;94292.09;;;7.36;79.04
10706;BME280;5404;42.656;23.336;2023-11-22T07:52:45;94293.97;;;7.39;79.38
10706;BME280;5404;42.656;23.336;2023-11-22T07:55:11;94293.94;;;7.43;78.66
10706;BME280;5404;42.656;23.336;2023-11-22T07:57:39;94300.88;;;7.47;79.41
10706;BME280;5404;42.656;23.336;2023-11-22T08:00:06;94301.34;;;7.39;77.74
10706;BME280;5404;42.656;23.336;2023-11-22T08:02:34;94293.69;;;7.30;77.60
10706;BME280;5404;42.656;23.336;2023-11-22T08:05:02;94296.75;;;7.32;78.01
10706;BME280;5404;42.656;23.336;2023-11-22T08:07:28;94292.00;;;7.43;78.44
10706;BME280;5404;42.656;23.336;2023-11-22T08:09:55;94303.50;;;7.55;78.39
10706;BME280;5404;42.656;23.336;2023-11-22T08:12:20;94306.56;;;7.60;78.44
10706;BME280;5404;42.656;23.336;2023-11-22T08:14:46;94298.34;;;7.67;77.17
10706;BME280;5404;42.656;23.336;2023-11-22T08:17:11;94305.75;;;7.67;77.69
10706;BME280;5404;42.656;23.336;2023-11-22T08:19:38;94311.81;;;7.74;77.74
10706;BME280;5404;42.656;23.336;2023-11-22T08:22:05;94304.75;;;7.84;78.14
10706;BME280;5404;42.656;23.336;2023-11-22T08:24:31;94310.84;;;7.95;77.18
10706;BME280;5404;42.656;23.336;2023-11-22T08:26:57;94308.88;;;7.99;77.27
10706;BME280;5404;42.656;23.336;2023-11-22T08:29:24;94309.94;;;8.09;76.29
10706;BME280;5404;42.656;23.336;2023-11-22T08:31:49;94317.63;;;8.10;76.46
10706;BME280;5404;42.656;23.336;2023-11-22T08:34:18;94322.91;;;8.24;76.20
10706;BME280;5404;42.656;23.336;2023-11-22T08:36:43;94322.84;;;8.32;75.34
10706;BME280;5404;42.656;23.336;2023-11-22T08:39:08;94318.78;;;8.47;75.59
10706;BME280;5404;42.656;23.336;2023-11-22T08:41:36;94314.94;;;8.44;74.01
10706;BME280;5404;42.656;23.336;2023-11-22T08:44:02;94321.66;;;8.33;75.04
10706;BME280;5404;42.656;23.336;2023-11-22T08:46:27;94320.13;;;8.32;74.05
10706;BME280;5404;42.656;23.336;2023-11-22T08:48:53;94330.50;;;8.40;74.99
10706;BME280;5404;42.656;23.336;2023-11-22T08:51:18;94323.91;;;8.41;74.65
10706;BME280;5404;42.656;23.336;2023-11-22T08:53:44;94320.41;;;8.41;74.13
10706;BME280;5404;42.656;23.336;2023-11-22T08:56:10;94308.00;;;8.40;73.91
10706;BME280;5404;42.656;23.336;2023-11-22T08:58:37;94317.91;;;8.53;73.07
10706;BME280;5404;42.656;23.336;2023-11-22T09:01:04;94317.81;;;8.60;73.65
10706;BME280;5404;42.656;23.336;2023-11-22T09:03:30;94312.72;;;8.66;73.95
10706;BME280;5404;42.656;23.336;2023-11-22T09:05:56;94314.50;;;8.76;73.32
10706;BME280;5404;42.656;23.336;2023-11-22T09:08:21;94328.66;;;8.91;73.28
10706;BME280;5404;42.656;23.336;2023-11-22T09:10:47;94334.72;;;9.02;73.05
10706;BME280;5404;42.656;23.336;2023-11-22T09:13:12;94336.50;;;9.12;73.09
10706;BME280;5404;42.656;23.336;2023-11-22T09:15:41;94333.06;;;9.08;71.96
10706;BME280;5404;42.656;23.336;2023-11-22T09:18:09;94347.84;;;9.07;73.40
10706;BME280;5404;42.656;23.336;2023-11-22T09:20:35;94344.13;;;9.21;73.35
10706;BME280;5404;42.656;23.336;2023-11-22T09:23:00;94350.28;;;9.25;72.53
10706;BME280;5404;42.656;23.336;2023-11-22T09:25:26;94351.88;;;9.22;72.63
10706;BME280;5404;42.656;23.336;2023-11-22T09:27:57;94344.16;;;9.17;72.48
10706;BME280;5404;42.656;23.336;2023-11-22T09:30:33;94356.22;;;8.89;73.19
10706;BME280;5404;42.656;23.336;2023-11-22T09:33:04;94353.19;;;8.84;74.38
10706;BME280;5404;42.656;23.336;2023-11-22T09:35:31;94353.09;;;8.91;73.85
10706;BME280;5404;42.656;23.336;2023-11-22T09:38:07;94344.59;;;8.89;74.24
10706;BME280;5404;42.656;23.336;2023-11-22T09:40:40;94347.78;;;8.84;73.98
10706;BME280;5404;42.656;23.336;2023-11-22T09:43:07;94357.41;;;8.88;74.63
10706;BME280;5404;42.656;23.336;2023-11-22T09:45:32;94366.56;;;8.71;74.29
10706;BME280;5404;42.656;23.336;2023-11-22T09:47:59;94365.41;;;8.72;74.95
10706;BME280;5404;42.656;23.336;2023-11-22T09:53:25;94337.41;;;8.75;75.59
10706;BME280;5404;42.656;23.336;2023-11-22T09:55:56;94361.41;;;8.80;76.06
10706;BME280;5404;42.656;23.336;2023-11-22T09:58:22;94336.47;;;8.58;76.15
10706;BME280;5404;42.656;23.336;2023-11-22T10:00:50;94346.28;;;8.79;76.25
10706;BME280;5404;42.656;23.336;2023-11-22T10:03:16;94354.22;;;8.67;75.59
10706;BME280;5404;42.656;23.336;2023-11-22T10:05:43;94351.50;;;8.67;75.42
10706;BME280;5404;42.656;23.336;2023-11-22T10:08:09;94351.06;;;8.72;75.89
10706;BME280;5404;42.656;23.336;2023-11-22T10:10:39;94331.31;;;8.68;75.67
10706;BME280;5404;42.656;23.336;2023-11-22T10:13:05;94341.88;;;8.89;75.82
10706;BME280;5404;42.656;23.336;2023-11-22T10:15:33;94332.13;;;8.91;75.83
10706;BME280;5404;42.656;23.336;2023-11-22T10:17:59;94341.16;;;9.12;75.49
10706;BME280;5404;42.656;23.336;2023-11-22T10:20:47;94335.69;;;9.15;74.85
10706;BME280;5404;42.656;23.336;2023-11-22T10:23:16;94338.69;;;9.21;75.00
10706;BME280;5404;42.656;23.336;2023-11-22T10:25:47;94321.13;;;9.02;73.84
10706;BME280;5404;42.656;23.336;2023-11-22T10:28:15;94330.47;;;9.01;73.88
10706;BME280;5404;42.656;23.336;2023-11-22T10:30:41;94339.88;;;9.20;74.13
10706;BME280;5404;42.656;23.336;2023-11-22T10:33:10;94335.34;;;9.36;73.77
10706;BME280;5404;42.656;23.336;2023-11-22T10:35:41;94331.25;;;9.48;73.88
10706;BME280;5404;42.656;23.336;2023-11-22T10:38:08;94338.94;;;9.53;73.38
10706;BME280;5404;42.656;23.336;2023-11-22T10:40:36;94340.88;;;9.53;73.52
10706;BME280;5404;42.656;23.336;2023-11-22T10:43:01;94337.19;;;9.43;73.53
10706;BME280;5404;42.656;23.336;2023-11-22T10:45:29;94346.00;;;9.51;73.23
10706;BME280;5404;42.656;23.336;2023-11-22T10:48:00;94353.56;;;9.63;73.46
10706;BME280;5404;42.656;23.336;2023-11-22T10:50:25;94354.31;;;9.40;73.81
10706;BME280;5404;42.656;23.336;2023-11-22T10:52:52;94346.75;;;9.51;74.03
10706;BME280;5404;42.656;23.336;2023-11-22T10:55:21;94337.63;;;9.61;73.51
10706;BME280;5404;42.656;23.336;2023-11-22T10:57:55;94345.69;;;9.68;72.86
10706;BME280;5404;42.656;23.336;2023-11-22T11:00:22;94339.00;;;9.73;73.59
10706;BME280;5404;42.656;23.336;2023-11-22T11:03:03;94338.25;;;9.72;73.43
10706;BME280;5404;42.656;23.336;2023-11-22T11:05:33;94316.16;;;9.67;72.62
10706;BME280;5404;42.656;23.336;2023-11-22T11:08:11;94338.00;;;9.87;72.67
10706;BME280;5404;42.656;23.336;2023-11-22T11:10:41;94338.44;;;9.81;72.59
10706;BME280;5404;42.656;23.336;2023-11-22T11:13:07;94347.09;;;9.76;72.83
10706;BME280;5404;42.656;23.336;2023-11-22T11:15:40;94351.22;;;9.85;72.40
10706;BME280;5404;42.656;23.336;2023-11-22T11:18:13;94336.28;;;9.73;72.69
10706;BME280;5404;42.656;23.336;2023-11-22T11:20:49;94346.19;;;9.60;73.21
10706;BME280;5404;42.656;23.336;2023-11-22T11:23:22;94336.47;;;9.62;73.68
10706;BME280;5404;42.656;23.336;2023-11-22T11:26:08;94340.13;;;9.75;73.44
10706;BME280;5404;42.656;23.336;2023-11-22T11:28:45;94333.63;;;9.69;73.30
10706;BME280;5404;42.656;23.336;2023-11-22T11:31:13;94340.84;;;9.79;73.04
10706;BME280;5404;42.656;23.336;2023-11-22T11:36:31;94343.75;;;9.89;73.20
10706;BME280;5404;42.656;23.336;2023-11-22T11:39:07;94334.63;;;9.79;73.72
10706;BME280;5404;42.656;23.336;2023-11-22T11:41:40;94336.47;;;9.62;73.67
10706;BME280;5404;42.656;23.336;2023-11-22T11:44:10;94346.66;;;9.58;74.74
10706;BME280;5404;42.656;23.336;2023-11-22T11:46:38;94348.75;;;9.70;74.39
10706;BME280;5404;42.656;23.336;2023-11-22T11:49:07;94342.72;;;9.59;74.96
10706;BME280;5404;42.656;23.336;2023-11-22T11:51:34;94345.75;;;9.65;74.53
10706;BME280;5404;42.656;23.336;2023-11-22T11:54:00;94347.22;;;9.69;74.93
10706;BME280;5404;42.656;23.336;2023-11-22T11:56:26;94332.06;;;9.68;73.73
10706;BME280;5404;42.656;23.336;2023-11-22T11:58:56;94342.22;;;9.88;73.50
10706;BME280;5404;42.656;23.336;2023-11-22T12:01:24;94341.41;;;9.91;73.39
10706;BME280;5404;42.656;23.336;2023-11-22T12:03:50;94326.88;;;9.77;73.58
10706;BME280;5404;42.656;23.336;2023-11-22T12:06:16;94356.72;;;9.81;72.95
10706;BME280;5404;42.656;23.336;2023-11-22T12:08:43;94348.03;;;9.90;73.57
10706;BME280;5404;42.656;23.336;2023-11-22T12:11:08;94352.16;;;9.98;72.52
10706;BME280;5404;42.656;23.336;2023-11-22T12:13:36;94358.00;;;9.96;71.67
10706;BME280;5404;42.656;23.336;2023-11-22T12:16:08;94368.00;;;10.03;72.37
10706;BME280;5404;42.656;23.336;2023-11-22T12:18:47;94373.94;;;9.98;72.49
10706;BME280;5404;42.656;23.336;2023-11-22T12:21:14;94373.94;;;9.98;72.41
10706;BME280;5404;42.656;23.336;2023-11-22T12:23:43;94367.41;;;10.15;72.30
10706;BME280;5404;42.656;23.336;2023-11-22T12:26:20;94370.22;;;10.31;72.06
10706;BME280;5404;42.656;23.336;2023-11-22T12:28:48;94370.44;;;10.40;71.28
10706;BME280;5404;42.656;23.336;2023-11-22T12:31:14;94356.28;;;10.29;71.41
10706;BME280;5404;42.656;23.336;2023-11-22T12:33:40;94370.38;;;10.44;71.47
10706;BME280;5404;42.656;23.336;2023-11-22T12:36:07;94372.19;;;10.50;71.47
10706;BME280;5404;42.656;23.336;2023-11-22T12:38:37;94378.91;;;10.66;70.93
10706;BME280;5404;42.656;23.336;2023-11-22T12:41:05;94367.88;;;10.73;70.96
10706;BME280;5404;42.656;23.336;2023-11-22T12:43:32;94374.69;;;10.81;70.26
10706;BME280;5404;42.656;23.336;2023-11-22T12:46:01;94380.50;;;10.63;70.33
10706;BME280;5404;42.656;23.336;2023-11-22T12:48:27;94382.47;;;10.43;71.07
10706;BME280;5404;42.656;23.336;2023-11-22T12:50:56;94398.13;;;10.58;69.99
10706;BME280;5404;42.656;23.336;2023-11-22T12:53:23;94399.00;;;10.32;70.79
10706;BME280;5404;42.656;23.336;2023-11-22T12:55:52;94401.44;;;10.27;70.96
10706;BME280;5404;42.656;23.336;2023-11-22T12:58:19;94398.16;;;10.35;70.52
10706;BME280;5404;42.656;23.336;2023-11-22T13:00:46;94401.94;;;10.41;70.54
10706;BME280;5404;42.656;23.336;2023-11-22T13:03:12;94403.72;;;10.51;70.65
10706;BME280;5404;42.656;23.336;2023-11-22T13:05:42;94407.19;;;10.52;69.85
10706;BME280;5404;42.656;23.336;2023-11-22T13:08:11;94413.41;;;10.52;70.50
10706;BME280;5404;42.656;23.336;2023-11-22T13:10:43;94406.75;;;10.53;70.25
10706;BME280;5404;42.656;23.336;2023-11-22T13:13:08;94409.56;;;10.50;70.40
10706;BME280;5404;42.656;23.336;2023-11-22T13:15:34;94415.34;;;10.32;71.22